sensor_id;sensor_type;location;lat;lon;timestamp;P1;durP1;ratioP1;P2;durP2;ratioP2
21729;SDS011;11027;51.030;13.812;2024-03-17T00:01:04;4.95;;;2.25;;
21729;SDS011;11027;51.030;13.812;2024-03-17T00:03:30;4.50;;;1.60;;
21729;SDS011;11027;51.030;13.812;2024-03-17T00:05:59;4.53;;;1.83;;
21729;SDS011;11027;51.030;13.812;2024-03-17T00:08:26;11.23;;;2.35;;
21729;SDS011;11027;51.030;13.812;2024-03-17T00:10:52;7.47;;;2.40;;
21729;SDS011;11027;51.030;13.812;2024-03-17T00:13:17;7.20;;;1.80;;
21729;SDS011;11027;51.030;13.812;2024-03-17T00:15:43;4.95;;;1.85;;
21729;SDS011;11027;51.030;13.812;2024-03-17T00:18:09;3.88;;;1.70;;
21729;SDS011;11027;51.030;13.812;2024-03-17T00:20:35;5.45;;;1.77;;
21729;SDS011;11027;51.030;13.812;2024-03-17T00:23:03;6.15;;;1.73;;
21729;SDS011;11027;51.030;13.812;2024-03-17T00:25:31;7.28;;;2.20;;
21729;SDS011;11027;51.030;13.812;2024-03-17T00:27:56;6.78;;;2.05;;
21729;SDS011;11027;51.030;13.812;2024-03-17T00:30:22;4.05;;;1.63;;
21729;SDS011;11027;51.030;13.812;2024-03-17T00:32:48;10.80;;;2.80;;
21729;SDS011;11027;51.030;13.812;2024-03-17T00:35:13;10.10;;;2.65;;
21729;SDS011;11027;51.030;13.812;2024-03-17T00:40:10;5.90;;;2.40;;
21729;SDS011;11027;51.030;13.812;2024-03-17T00:42:36;5.45;;;2.03;;
21729;SDS011;11027;51.030;13.812;2024-03-17T00:45:02;4.18;;;2.05;;
21729;SDS011;11027;51.030;13.812;2024-03-17T00:47:28;3.85;;;1.98;;
21729;SDS011;11027;51.030;13.812;2024-03-17T00:49:54;4.65;;;2.13;;
21729;SDS011;11027;51.030;13.812;2024-03-17T00:52:19;8.45;;;2.75;;
21729;SDS011;11027;51.030;13.812;2024-03-17T00:54:46;5.40;;;1.83;;
21729;SDS011;11027;51.030;13.812;2024-03-17T00:57:12;4.97;;;2.00;;
21729;SDS011;11027;51.030;13.812;2024-03-17T00:59:37;10.95;;;2.42;;
21729;SDS011;11027;51.030;13.812;2024-03-17T01:02:02;10.32;;;2.47;;
21729;SDS011;11027;51.030;13.812;2024-03-17T01:04:28;9.57;;;2.58;;
21729;SDS011;11027;51.030;13.812;2024-03-17T01:06:53;8.02;;;2.55;;
21729;SDS011;11027;51.030;13.812;2024-03-17T01:09:19;8.35;;;2.38;;
21729;SDS011;11027;51.030;13.812;2024-03-17T01:11:45;5.70;;;2.22;;
21729;SDS011;11027;51.030;13.812;2024-03-17T01:14:10;6.20;;;2.40;;
21729;SDS011;11027;51.030;13.812;2024-03-17T01:16:35;7.88;;;2.28;;
21729;SDS011;11027;51.030;13.812;2024-03-17T01:19:01;6.00;;;2.38;;
21729;SDS011;11027;51.030;13.812;2024-03-17T01:21:26;6.32;;;2.05;;
21729;SDS011;11027;51.030;13.812;2024-03-17T01:23:51;6.18;;;2.10;;
21729;SDS011;11027;51.030;13.812;2024-03-17T01:26:17;5.10;;;2.20;;
21729;SDS011;11027;51.030;13.812;2024-03-17T01:28:42;9.75;;;2.45;;
21729;SDS011;11027;51.030;13.812;2024-03-17T01:31:07;4.70;;;2.10;;
21729;SDS011;11027;51.030;13.812;2024-03-17T01:33:33;7.05;;;2.42;;
21729;SDS011;11027;51.030;13.812;2024-03-17T01:35:58;7.18;;;2.45;;
21729;SDS011;11027;51.030;13.812;2024-03-17T01:38:23;5.88;;;2.83;;
21729;SDS011;11027;51.030;13.812;2024-03-17T01:40:48;9.27;;;2.42;;
21729;SDS011;11027;51.030;13.812;2024-03-17T01:43:14;8.35;;;2.92;;
21729;SDS011;11027;51.030;13.812;2024-03-17T01:45:39;5.60;;;2.10;;
21729;SDS011;11027;51.030;13.812;2024-03-17T01:48:05;4.55;;;2.20;;
21729;SDS011;11027;51.030;13.812;2024-03-17T01:50:37;5.82;;;2.42;;
21729;SDS011;11027;51.030;13.812;2024-03-17T01:53:04;5.95;;;2.50;;
21729;SDS011;11027;51.030;13.812;2024-03-17T01:55:31;4.72;;;2.47;;
21729;SDS011;11027;51.030;13.812;2024-03-17T01:57:58;4.20;;;2.38;;
21729;SDS011;11027;51.030;13.812;2024-03-17T02:00:24;8.65;;;2.30;;
21729;SDS011;11027;51.030;13.812;2024-03-17T02:02:49;5.22;;;2.50;;
21729;SDS011;11027;51.030;13.812;2024-03-17T02:05:16;9.45;;;2.50;;
21729;SDS011;11027;51.030;13.812;2024-03-17T02:07:42;4.47;;;2.40;;
21729;SDS011;11027;51.030;13.812;2024-03-17T02:10:07;7.45;;;2.72;;
21729;SDS011;11027;51.030;13.812;2024-03-17T02:12:33;7.65;;;2.60;;
21729;SDS011;11027;51.030;13.812;2024-03-17T02:14:59;6.72;;;2.80;;
21729;SDS011;11027;51.030;13.812;2024-03-17T02:17:25;5.72;;;2.60;;
21729;SDS011;11027;51.030;13.812;2024-03-17T02:19:50;11.25;;;2.80;;
21729;SDS011;11027;51.030;13.812;2024-03-17T02:22:17;5.15;;;2.05;;
21729;SDS011;11027;51.030;13.812;2024-03-17T02:24:42;4.22;;;1.90;;
21729;SDS011;11027;51.030;13.812;2024-03-17T02:27:08;5.38;;;2.33;;
21729;SDS011;11027;51.030;13.812;2024-03-17T02:29:34;6.88;;;2.20;;
21729;SDS011;11027;51.030;13.812;2024-03-17T02:32:01;4.35;;;1.95;;
21729;SDS011;11027;51.030;13.812;2024-03-17T02:34:31;4.18;;;2.00;;
21729;SDS011;11027;51.030;13.812;2024-03-17T02:36:57;6.85;;;2.30;;
21729;SDS011;11027;51.030;13.812;2024-03-17T02:39:22;5.18;;;2.05;;
21729;SDS011;11027;51.030;13.812;2024-03-17T02:41:59;6.95;;;2.28;;
21729;SDS011;11027;51.030;13.812;2024-03-17T02:44:32;7.40;;;2.10;;
21729;SDS011;11027;51.030;13.812;2024-03-17T02:46:58;5.53;;;2.28;;
21729;SDS011;11027;51.030;13.812;2024-03-17T02:49:27;6.55;;;2.00;;
21729;SDS011;11027;51.030;13.812;2024-03-17T02:52:00;3.42;;;2.15;;
21729;SDS011;11027;51.030;13.812;2024-03-17T02:54:25;3.58;;;2.00;;
21729;SDS011;11027;51.030;13.812;2024-03-17T02:56:50;9.18;;;2.40;;
21729;SDS011;11027;51.030;13.812;2024-03-17T02:59:16;5.35;;;2.22;;
21729;SDS011;11027;51.030;13.812;2024-03-17T03:01:42;5.72;;;2.50;;
21729;SDS011;11027;51.030;13.812;2024-03-17T03:04:07;5.18;;;2.13;;
21729;SDS011;11027;51.030;13.812;2024-03-17T03:06:35;4.57;;;2.47;;
21729;SDS011;11027;51.030;13.812;2024-03-17T03:09:01;6.78;;;2.90;;
21729;SDS011;11027;51.030;13.812;2024-03-17T03:11:26;7.95;;;3.20;;
21729;SDS011;11027;51.030;13.812;2024-03-17T03:13:52;6.45;;;3.03;;
21729;SDS011;11027;51.030;13.812;2024-03-17T03:16:17;5.43;;;2.63;;
21729;SDS011;11027;51.030;13.812;2024-03-17T03:18:44;7.63;;;3.05;;
21729;SDS011;11027;51.030;13.812;2024-03-17T03:21:09;5.57;;;3.05;;
21729;SDS011;11027;51.030;13.812;2024-03-17T03:23:35;10.23;;;2.65;;
21729;SDS011;11027;51.030;13.812;2024-03-17T03:26:01;8.07;;;3.15;;
21729;SDS011;11027;51.030;13.812;2024-03-17T03:28:28;5.45;;;2.70;;
21729;SDS011;11027;51.030;13.812;2024-03-17T03:30:54;6.05;;;3.55;;
21729;SDS011;11027;51.030;13.812;2024-03-17T03:33:20;5.70;;;3.58;;
21729;SDS011;11027;51.030;13.812;2024-03-17T03:35:45;6.07;;;2.80;;
21729;SDS011;11027;51.030;13.812;2024-03-17T03:38:11;6.70;;;2.60;;
21729;SDS011;11027;51.030;13.812;2024-03-17T03:40:38;4.70;;;2.58;;
21729;SDS011;11027;51.030;13.812;2024-03-17T03:43:04;5.18;;;2.67;;
21729;SDS011;11027;51.030;13.812;2024-03-17T03:45:29;4.90;;;2.85;;
21729;SDS011;11027;51.030;13.812;2024-03-17T03:47:55;4.43;;;2.50;;
21729;SDS011;11027;51.030;13.812;2024-03-17T03:50:21;4.57;;;2.78;;
21729;SDS011;11027;51.030;13.812;2024-03-17T03:52:47;4.95;;;2.33;;
21729;SDS011;11027;51.030;13.812;2024-03-17T03:55:12;4.97;;;2.63;;
21729;SDS011;11027;51.030;13.812;2024-03-17T03:57:40;5.30;;;2.67;;
21729;SDS011;11027;51.030;13.812;2024-03-17T04:00:07;6.35;;;2.78;;
21729;SDS011;11027;51.030;13.812;2024-03-17T04:02:37;9.65;;;2.88;;
21729;SDS011;11027;51.030;13.812;2024-03-17T04:05:03;7.40;;;3.10;;
21729;SDS011;11027;51.030;13.812;2024-03-17T04:07:29;7.50;;;2.78;;
21729;SDS011;11027;51.030;13.812;2024-03-17T04:09:54;6.90;;;2.92;;
21729;SDS011;11027;51.030;13.812;2024-03-17T04:12:19;6.13;;;2.92;;
21729;SDS011;11027;51.030;13.812;2024-03-17T04:14:45;6.05;;;2.85;;
21729;SDS011;11027;51.030;13.812;2024-03-17T04:17:11;5.50;;;2.72;;
21729;SDS011;11027;51.030;13.812;2024-03-17T04:19:37;5.75;;;2.92;;
21729;SDS011;11027;51.030;13.812;2024-03-17T04:22:03;9.32;;;3.15;;
21729;SDS011;11027;51.030;13.812;2024-03-17T04:24:28;6.57;;;2.85;;
21729;SDS011;11027;51.030;13.812;2024-03-17T04:26:53;6.00;;;2.60;;
21729;SDS011;11027;51.030;13.812;2024-03-17T04:29:18;7.18;;;2.85;;
21729;SDS011;11027;51.030;13.812;2024-03-17T04:31:45;4.88;;;2.42;;
21729;SDS011;11027;51.030;13.812;2024-03-17T04:34:13;10.75;;;2.80;;
21729;SDS011;11027;51.030;13.812;2024-03-17T04:36:39;7.78;;;2.95;;
21729;SDS011;11027;51.030;13.812;2024-03-17T04:39:04;7.40;;;3.05;;
21729;SDS011;11027;51.030;13.812;2024-03-17T04:41:33;6.57;;;3.22;;
21729;SDS011;11027;51.030;13.812;2024-03-17T04:43:58;6.30;;;3.33;;
21729;SDS011;11027;51.030;13.812;2024-03-17T04:46:23;5.80;;;2.80;;
21729;SDS011;11027;51.030;13.812;2024-03-17T04:48:49;10.55;;;3.03;;
21729;SDS011;11027;51.030;13.812;2024-03-17T04:51:15;9.85;;;3.47;;
21729;SDS011;11027;51.030;13.812;2024-03-17T04:53:40;8.13;;;2.72;;
21729;SDS011;11027;51.030;13.812;2024-03-17T04:56:06;8.90;;;3.00;;
21729;SDS011;11027;51.030;13.812;2024-03-17T04:58:32;9.85;;;2.90;;
21729;SDS011;11027;51.030;13.812;2024-03-17T05:01:02;3.92;;;2.70;;
21729;SDS011;11027;51.030;13.812;2024-03-17T05:03:28;7.88;;;3.08;;
21729;SDS011;11027;51.030;13.812;2024-03-17T05:06:00;6.22;;;2.70;;
21729;SDS011;11027;51.030;13.812;2024-03-17T05:08:26;7.00;;;3.08;;
21729;SDS011;11027;51.030;13.812;2024-03-17T05:11:01;4.78;;;2.90;;
21729;SDS011;11027;51.030;13.812;2024-03-17T05:13:31;10.82;;;3.38;;
21729;SDS011;11027;51.030;13.812;2024-03-17T05:15:57;5.30;;;3.35;;
21729;SDS011;11027;51.030;13.812;2024-03-17T05:18:23;8.10;;;3.30;;
21729;SDS011;11027;51.030;13.812;2024-03-17T05:20:57;7.57;;;2.90;;
21729;SDS011;11027;51.030;13.812;2024-03-17T05:23:26;7.57;;;2.83;;
21729;SDS011;11027;51.030;13.812;2024-03-17T05:25:53;6.22;;;3.15;;
21729;SDS011;11027;51.030;13.812;2024-03-17T05:28:19;7.25;;;3.08;;
21729;SDS011;11027;51.030;13.812;2024-03-17T05:30:44;6.22;;;2.53;;
21729;SDS011;11027;51.030;13.812;2024-03-17T05:33:09;6.80;;;2.90;;
21729;SDS011;11027;51.030;13.812;2024-03-17T05:35:35;8.63;;;3.25;;
21729;SDS011;11027;51.030;13.812;2024-03-17T05:38:00;6.80;;;2.85;;
21729;SDS011;11027;51.030;13.812;2024-03-17T05:40:25;6.93;;;2.88;;
21729;SDS011;11027;51.030;13.812;2024-03-17T05:42:51;5.95;;;3.00;;
21729;SDS011;11027;51.030;13.812;2024-03-17T05:45:16;6.85;;;2.63;;
21729;SDS011;11027;51.030;13.812;2024-03-17T05:47:42;3.92;;;2.42;;
21729;SDS011;11027;51.030;13.812;2024-03-17T05:50:07;4.70;;;2.47;;
21729;SDS011;11027;51.030;13.812;2024-03-17T05:52:33;6.50;;;2.83;;
21729;SDS011;11027;51.030;13.812;2024-03-17T05:54:59;10.35;;;2.97;;
21729;SDS011;11027;51.030;13.812;2024-03-17T05:57:25;4.50;;;2.80;;
21729;SDS011;11027;51.030;13.812;2024-03-17T05:59:51;5.93;;;2.95;;
21729;SDS011;11027;51.030;13.812;2024-03-17T06:02:16;11.35;;;3.85;;
21729;SDS011;11027;51.030;13.812;2024-03-17T06:04:41;12.32;;;3.15;;
21729;SDS011;11027;51.030;13.812;2024-03-17T06:07:07;6.28;;;2.97;;
21729;SDS011;11027;51.030;13.812;2024-03-17T06:09:33;7.10;;;2.90;;
21729;SDS011;11027;51.030;13.812;2024-03-17T06:11:58;5.85;;;2.85;;
21729;SDS011;11027;51.030;13.812;2024-03-17T06:14:23;5.85;;;2.80;;
21729;SDS011;11027;51.030;13.812;2024-03-17T06:16:49;7.28;;;2.97;;
21729;SDS011;11027;51.030;13.812;2024-03-17T06:19:14;5.85;;;2.85;;
21729;SDS011;11027;51.030;13.812;2024-03-17T06:21:39;5.82;;;2.90;;
21729;SDS011;11027;51.030;13.812;2024-03-17T06:24:05;7.78;;;3.42;;
21729;SDS011;11027;51.030;13.812;2024-03-17T06:26:31;8.75;;;3.15;;
21729;SDS011;11027;51.030;13.812;2024-03-17T06:28:59;9.07;;;3.00;;
21729;SDS011;11027;51.030;13.812;2024-03-17T06:31:25;6.95;;;3.40;;
21729;SDS011;11027;51.030;13.812;2024-03-17T06:33:50;4.82;;;2.72;;
21729;SDS011;11027;51.030;13.812;2024-03-17T06:36:15;11.05;;;3.03;;
21729;SDS011;11027;51.030;13.812;2024-03-17T06:38:42;7.72;;;2.85;;
21729;SDS011;11027;51.030;13.812;2024-03-17T06:41:09;7.13;;;2.83;;
21729;SDS011;11027;51.030;13.812;2024-03-17T06:43:34;6.97;;;2.60;;
21729;SDS011;11027;51.030;13.812;2024-03-17T06:46:00;9.57;;;2.70;;
21729;SDS011;11027;51.030;13.812;2024-03-17T06:48:26;6.78;;;2.47;;
21729;SDS011;11027;51.030;13.812;2024-03-17T06:50:52;11.02;;;2.83;;
21729;SDS011;11027;51.030;13.812;2024-03-17T06:53:22;6.97;;;2.28;;
21729;SDS011;11027;51.030;13.812;2024-03-17T06:55:52;12.48;;;2.65;;
21729;SDS011;11027;51.030;13.812;2024-03-17T06:58:21;9.85;;;2.65;;
21729;SDS011;11027;51.030;13.812;2024-03-17T07:00:57;10.25;;;2.88;;
21729;SDS011;11027;51.030;13.812;2024-03-17T07:03:27;12.38;;;2.75;;
21729;SDS011;11027;51.030;13.812;2024-03-17T07:05:54;9.98;;;2.85;;
21729;SDS011;11027;51.030;13.812;2024-03-17T07:08:21;8.68;;;2.45;;
21729;SDS011;11027;51.030;13.812;2024-03-17T07:10:56;7.50;;;2.53;;
21729;SDS011;11027;51.030;13.812;2024-03-17T07:13:22;13.48;;;2.83;;
21729;SDS011;11027;51.030;13.812;2024-03-17T07:15:47;12.88;;;2.38;;
21729;SDS011;11027;51.030;13.812;2024-03-17T07:18:13;7.43;;;2.42;;
21729;SDS011;11027;51.030;13.812;2024-03-17T07:20:38;7.95;;;2.50;;
21729;SDS011;11027;51.030;13.812;2024-03-17T07:23:04;9.35;;;2.40;;
21729;SDS011;11027;51.030;13.812;2024-03-17T07:25:29;6.93;;;2.60;;
21729;SDS011;11027;51.030;13.812;2024-03-17T07:27:55;6.93;;;2.67;;
21729;SDS011;11027;51.030;13.812;2024-03-17T07:30:20;9.55;;;2.58;;
21729;SDS011;11027;51.030;13.812;2024-03-17T07:32:46;7.35;;;2.63;;
21729;SDS011;11027;51.030;13.812;2024-03-17T07:35:11;10.15;;;2.45;;
21729;SDS011;11027;51.030;13.812;2024-03-17T07:37:37;8.60;;;2.42;;
21729;SDS011;11027;51.030;13.812;2024-03-17T07:40:04;15.63;;;2.58;;
21729;SDS011;11027;51.030;13.812;2024-03-17T07:42:31;10.07;;;2.45;;
21729;SDS011;11027;51.030;13.812;2024-03-17T07:44:57;7.93;;;2.42;;
21729;SDS011;11027;51.030;13.812;2024-03-17T07:47:22;9.02;;;2.65;;
21729;SDS011;11027;51.030;13.812;2024-03-17T07:49:47;13.00;;;2.08;;
21729;SDS011;11027;51.030;13.812;2024-03-17T07:52:13;14.73;;;3.30;;
21729;SDS011;11027;51.030;13.812;2024-03-17T07:54:38;9.57;;;2.97;;
21729;SDS011;11027;51.030;13.812;2024-03-17T07:57:03;7.47;;;2.63;;
21729;SDS011;11027;51.030;13.812;2024-03-17T07:59:29;10.60;;;2.42;;
21729;SDS011;11027;51.030;13.812;2024-03-17T08:01:55;10.02;;;2.20;;
21729;SDS011;11027;51.030;13.812;2024-03-17T08:04:21;9.93;;;2.13;;
21729;SDS011;11027;51.030;13.812;2024-03-17T08:06:46;9.77;;;2.42;;
21729;SDS011;11027;51.030;13.812;2024-03-17T08:09:12;10.90;;;2.70;;
21729;SDS011;11027;51.030;13.812;2024-03-17T08:11:37;12.57;;;2.70;;
21729;SDS011;11027;51.030;13.812;2024-03-17T08:14:03;10.77;;;2.35;;
21729;SDS011;11027;51.030;13.812;2024-03-17T08:16:29;16.48;;;2.30;;
21729;SDS011;11027;51.030;13.812;2024-03-17T08:18:55;5.55;;;2.13;;
21729;SDS011;11027;51.030;13.812;2024-03-17T08:21:21;8.70;;;2.80;;
21729;SDS011;11027;51.030;13.812;2024-03-17T08:23:46;7.00;;;2.33;;
21729;SDS011;11027;51.030;13.812;2024-03-17T08:26:12;6.28;;;2.47;;
21729;SDS011;11027;51.030;13.812;2024-03-17T08:28:37;9.20;;;2.42;;
21729;SDS011;11027;51.030;13.812;2024-03-17T08:31:03;13.23;;;2.85;;
21729;SDS011;11027;51.030;13.812;2024-03-17T08:33:29;13.00;;;2.67;;
21729;SDS011;11027;51.030;13.812;2024-03-17T08:35:56;6.78;;;2.22;;
21729;SDS011;11027;51.030;13.812;2024-03-17T08:38:22;9.35;;;2.70;;
21729;SDS011;11027;51.030;13.812;2024-03-17T08:40:49;11.65;;;2.38;;
21729;SDS011;11027;51.030;13.812;2024-03-17T08:43:14;8.45;;;2.42;;
21729;SDS011;11027;51.030;13.812;2024-03-17T08:45:40;14.73;;;2.53;;
21729;SDS011;11027;51.030;13.812;2024-03-17T08:48:05;9.63;;;2.75;;
21729;SDS011;11027;51.030;13.812;2024-03-17T08:50:31;10.93;;;2.63;;
21729;SDS011;11027;51.030;13.812;2024-03-17T08:52:58;12.50;;;2.28;;
21729;SDS011;11027;51.030;13.812;2024-03-17T08:55:23;11.98;;;2.97;;
21729;SDS011;11027;51.030;13.812;2024-03-17T08:57:49;12.13;;;3.03;;
21729;SDS011;11027;51.030;13.812;2024-03-17T09:00:14;9.45;;;2.22;;
21729;SDS011;11027;51.030;13.812;2024-03-17T09:02:40;7.13;;;2.05;;
21729;SDS011;11027;51.030;13.812;2024-03-17T09:05:06;8.27;;;2.05;;
21729;SDS011;11027;51.030;13.812;2024-03-17T09:07:32;7.85;;;2.30;;
21729;SDS011;11027;51.030;13.812;2024-03-17T09:09:57;9.10;;;2.67;;
21729;SDS011;11027;51.030;13.812;2024-03-17T09:12:24;8.65;;;2.03;;
21729;SDS011;11027;51.030;13.812;2024-03-17T09:14:49;5.63;;;2.10;;
21729;SDS011;11027;51.030;13.812;2024-03-17T09:17:14;10.27;;;2.38;;
21729;SDS011;11027;51.030;13.812;2024-03-17T09:19:39;7.25;;;2.30;;
21729;SDS011;11027;51.030;13.812;2024-03-17T09:22:06;11.38;;;2.40;;
21729;SDS011;11027;51.030;13.812;2024-03-17T09:24:31;9.80;;;2.30;;
21729;SDS011;11027;51.030;13.812;2024-03-17T09:26:56;12.25;;;2.22;;
21729;SDS011;11027;51.030;13.812;2024-03-17T09:29:21;6.05;;;2.13;;
21729;SDS011;11027;51.030;13.812;2024-03-17T09:31:47;11.23;;;2.88;;
21729;SDS011;11027;51.030;13.812;2024-03-17T09:34:12;4.88;;;1.92;;
21729;SDS011;11027;51.030;13.812;2024-03-17T09:36:37;9.38;;;2.35;;
21729;SDS011;11027;51.030;13.812;2024-03-17T09:39:03;11.52;;;2.22;;
21729;SDS011;11027;51.030;13.812;2024-03-17T09:41:30;6.20;;;2.00;;
21729;SDS011;11027;51.030;13.812;2024-03-17T09:43:56;8.35;;;2.53;;
21729;SDS011;11027;51.030;13.812;2024-03-17T09:46:26;12.13;;;2.40;;
21729;SDS011;11027;51.030;13.812;2024-03-17T09:48:54;11.90;;;1.98;;
21729;SDS011;11027;51.030;13.812;2024-03-17T09:51:23;8.45;;;2.10;;
21729;SDS011;11027;51.030;13.812;2024-03-17T09:53:50;8.00;;;2.58;;
21729;SDS011;11027;51.030;13.812;2024-03-17T09:56:16;8.30;;;2.65;;
21729;SDS011;11027;51.030;13.812;2024-03-17T09:58:46;8.32;;;1.77;;
21729;SDS011;11027;51.030;13.812;2024-03-17T10:01:12;8.13;;;1.33;;
21729;SDS011;11027;51.030;13.812;2024-03-17T10:06:16;7.55;;;1.85;;
21729;SDS011;11027;51.030;13.812;2024-03-17T10:08:47;9.70;;;1.73;;
21729;SDS011;11027;51.030;13.812;2024-03-17T10:11:17;6.97;;;2.00;;
21729;SDS011;11027;51.030;13.812;2024-03-17T10:13:44;3.88;;;1.40;;
21729;SDS011;11027;51.030;13.812;2024-03-17T10:16:23;9.20;;;1.90;;
21729;SDS011;11027;51.030;13.812;2024-03-17T10:21:50;8.23;;;2.05;;
21729;SDS011;11027;51.030;13.812;2024-03-17T10:24:24;5.47;;;1.42;;
21729;SDS011;11027;51.030;13.812;2024-03-17T10:26:57;9.30;;;2.08;;
21729;SDS011;11027;51.030;13.812;2024-03-17T10:29:27;7.07;;;1.95;;
21729;SDS011;11027;51.030;13.812;2024-03-17T10:31:59;3.85;;;1.30;;
21729;SDS011;11027;51.030;13.812;2024-03-17T10:34:27;6.37;;;1.70;;
21729;SDS011;11027;51.030;13.812;2024-03-17T10:39:48;7.65;;;1.50;;
21729;SDS011;11027;51.030;13.812;2024-03-17T10:42:17;6.25;;;1.52;;
21729;SDS011;11027;51.030;13.812;2024-03-17T10:44:49;5.60;;;1.50;;
21729;SDS011;11027;51.030;13.812;2024-03-17T10:47:20;6.90;;;1.83;;
21729;SDS011;11027;51.030;13.812;2024-03-17T10:49:47;7.00;;;1.70;;
21729;SDS011;11027;51.030;13.812;2024-03-17T10:52:16;5.70;;;1.40;;
21729;SDS011;11027;51.030;13.812;2024-03-17T10:54:48;6.28;;;1.50;;
21729;SDS011;11027;51.030;13.812;2024-03-17T11:00:02;8.13;;;2.35;;
21729;SDS011;11027;51.030;13.812;2024-03-17T11:02:30;3.83;;;1.48;;
21729;SDS011;11027;51.030;13.812;2024-03-17T11:05:20;7.97;;;1.75;;
21729;SDS011;11027;51.030;13.812;2024-03-17T11:07:48;5.07;;;1.83;;
21729;SDS011;11027;51.030;13.812;2024-03-17T11:10:22;5.15;;;1.20;;
21729;SDS011;11027;51.030;13.812;2024-03-17T11:12:56;7.20;;;1.92;;
21729;SDS011;11027;51.030;13.812;2024-03-17T11:17:51;4.95;;;1.40;;
21729;SDS011;11027;51.030;13.812;2024-03-17T11:20:21;6.28;;;1.58;;
21729;SDS011;11027;51.030;13.812;2024-03-17T11:22:51;6.45;;;1.50;;
21729;SDS011;11027;51.030;13.812;2024-03-17T11:27:50;6.00;;;1.40;;
21729;SDS011;11027;51.030;13.812;2024-03-17T11:38:52;7.00;;;1.40;;
21729;SDS011;11027;51.030;13.812;2024-03-17T11:47:05;6.97;;;1.80;;
21729;SDS011;11027;51.030;13.812;2024-03-17T11:49:33;11.13;;;1.80;;
21729;SDS011;11027;51.030;13.812;2024-03-17T11:52:02;5.78;;;1.90;;
21729;SDS011;11027;51.030;13.812;2024-03-17T11:54:29;4.88;;;1.48;;
21729;SDS011;11027;51.030;13.812;2024-03-17T11:57:00;4.68;;;1.40;;
21729;SDS011;11027;51.030;13.812;2024-03-17T11:59:27;5.93;;;1.70;;
21729;SDS011;11027;51.030;13.812;2024-03-17T12:01:52;5.75;;;1.60;;
21729;SDS011;11027;51.030;13.812;2024-03-17T12:04:18;9.07;;;1.50;;
21729;SDS011;11027;51.030;13.812;2024-03-17T12:06:46;8.90;;;2.00;;
21729;SDS011;11027;51.030;13.812;2024-03-17T12:09:22;5.18;;;1.60;;
21729;SDS011;11027;51.030;13.812;2024-03-17T12:12:11;7.85;;;2.10;;
21729;SDS011;11027;51.030;13.812;2024-03-17T12:14:41;7.93;;;1.92;;
21729;SDS011;11027;51.030;13.812;2024-03-17T12:17:07;8.93;;;2.22;;
21729;SDS011;11027;51.030;13.812;2024-03-17T12:19:36;4.97;;;1.60;;
21729;SDS011;11027;51.030;13.812;2024-03-17T12:22:05;7.22;;;2.08;;
21729;SDS011;11027;51.030;13.812;2024-03-17T12:24:32;5.05;;;1.67;;
21729;SDS011;11027;51.030;13.812;2024-03-17T12:26:59;5.25;;;1.55;;
21729;SDS011;11027;51.030;13.812;2024-03-17T12:29:35;6.97;;;1.70;;
21729;SDS011;11027;51.030;13.812;2024-03-17T12:32:03;6.15;;;2.00;;
21729;SDS011;11027;51.030;13.812;2024-03-17T12:34:31;5.25;;;1.67;;
21729;SDS011;11027;51.030;13.812;2024-03-17T12:36:57;8.98;;;1.63;;
21729;SDS011;11027;51.030;13.812;2024-03-17T12:39:27;3.28;;;1.30;;
21729;SDS011;11027;51.030;13.812;2024-03-17T12:42:09;4.55;;;1.70;;
21729;SDS011;11027;51.030;13.812;2024-03-17T12:44:36;9.05;;;1.80;;
21729;SDS011;11027;51.030;13.812;2024-03-17T12:47:06;6.65;;;1.85;;
21729;SDS011;11027;51.030;13.812;2024-03-17T12:49:33;5.15;;;1.90;;
21729;SDS011;11027;51.030;13.812;2024-03-17T12:51:59;5.18;;;1.60;;
21729;SDS011;11027;51.030;13.812;2024-03-17T12:54:26;5.30;;;1.45;;
21729;SDS011;11027;51.030;13.812;2024-03-17T12:57:03;5.55;;;1.60;;
21729;SDS011;11027;51.030;13.812;2024-03-17T12:59:47;6.03;;;1.50;;
21729;SDS011;11027;51.030;13.812;2024-03-17T13:02:31;6.25;;;1.60;;
21729;SDS011;11027;51.030;13.812;2024-03-17T13:07:40;9.25;;;1.70;;
21729;SDS011;11027;51.030;13.812;2024-03-17T13:10:05;3.17;;;1.40;;
21729;SDS011;11027;51.030;13.812;2024-03-17T13:12:32;7.85;;;1.90;;
21729;SDS011;11027;51.030;13.812;2024-03-17T13:15:01;3.85;;;1.50;;
21729;SDS011;11027;51.030;13.812;2024-03-17T13:17:26;5.35;;;1.70;;
21729;SDS011;11027;51.030;13.812;2024-03-17T13:19:54;5.80;;;1.83;;
21729;SDS011;11027;51.030;13.812;2024-03-17T13:22:19;6.05;;;1.92;;
21729;SDS011;11027;51.030;13.812;2024-03-17T13:24:44;4.72;;;1.58;;
21729;SDS011;11027;51.030;13.812;2024-03-17T13:27:09;8.27;;;1.90;;
21729;SDS011;11027;51.030;13.812;2024-03-17T13:29:35;4.28;;;1.70;;
21729;SDS011;11027;51.030;13.812;2024-03-17T13:32:03;7.63;;;2.03;;
21729;SDS011;11027;51.030;13.812;2024-03-17T13:34:29;4.10;;;1.60;;
21729;SDS011;11027;51.030;13.812;2024-03-17T13:36:55;4.88;;;1.70;;
21729;SDS011;11027;51.030;13.812;2024-03-17T13:39:20;6.90;;;1.70;;
21729;SDS011;11027;51.030;13.812;2024-03-17T13:41:47;10.20;;;2.05;;
21729;SDS011;11027;51.030;13.812;2024-03-17T13:44:12;8.20;;;1.95;;
21729;SDS011;11027;51.030;13.812;2024-03-17T13:46:38;10.02;;;2.10;;
21729;SDS011;11027;51.030;13.812;2024-03-17T13:49:06;4.90;;;1.80;;
21729;SDS011;11027;51.030;13.812;2024-03-17T13:51:33;4.65;;;1.83;;
21729;SDS011;11027;51.030;13.812;2024-03-17T13:53:58;5.38;;;2.00;;
21729;SDS011;11027;51.030;13.812;2024-03-17T13:56:24;6.78;;;1.77;;
21729;SDS011;11027;51.030;13.812;2024-03-17T13:58:49;8.25;;;2.42;;
21729;SDS011;11027;51.030;13.812;2024-03-17T14:01:16;3.53;;;1.60;;
21729;SDS011;11027;51.030;13.812;2024-03-17T14:03:41;4.63;;;1.63;;
21729;SDS011;11027;51.030;13.812;2024-03-17T14:06:08;7.68;;;2.10;;
21729;SDS011;11027;51.030;13.812;2024-03-17T14:08:33;4.47;;;1.80;;
21729;SDS011;11027;51.030;13.812;2024-03-17T14:10:59;4.90;;;1.90;;
21729;SDS011;11027;51.030;13.812;2024-03-17T14:13:24;5.78;;;2.15;;
21729;SDS011;11027;51.030;13.812;2024-03-17T14:15:49;5.35;;;1.58;;
21729;SDS011;11027;51.030;13.812;2024-03-17T14:18:15;4.65;;;1.80;;
21729;SDS011;11027;51.030;13.812;2024-03-17T14:20:40;5.38;;;2.10;;
21729;SDS011;11027;51.030;13.812;2024-03-17T14:23:05;6.85;;;2.25;;
21729;SDS011;11027;51.030;13.812;2024-03-17T14:25:30;7.18;;;1.95;;
21729;SDS011;11027;51.030;13.812;2024-03-17T14:27:55;7.05;;;1.92;;
21729;SDS011;11027;51.030;13.812;2024-03-17T14:30:21;3.45;;;1.60;;
21729;SDS011;11027;51.030;13.812;2024-03-17T14:32:46;5.50;;;2.25;;
21729;SDS011;11027;51.030;13.812;2024-03-17T14:35:13;7.85;;;1.70;;
21729;SDS011;11027;51.030;13.812;2024-03-17T14:37:42;5.47;;;1.98;;
21729;SDS011;11027;51.030;13.812;2024-03-17T14:40:12;7.38;;;2.08;;
21729;SDS011;11027;51.030;13.812;2024-03-17T14:42:45;5.78;;;2.30;;
21729;SDS011;11027;51.030;13.812;2024-03-17T14:45:10;5.82;;;1.98;;
21729;SDS011;11027;51.030;13.812;2024-03-17T14:47:36;6.03;;;2.05;;
21729;SDS011;11027;51.030;13.812;2024-03-17T14:50:01;4.65;;;2.00;;
21729;SDS011;11027;51.030;13.812;2024-03-17T14:52:26;7.20;;;2.28;;
21729;SDS011;11027;51.030;13.812;2024-03-17T14:54:52;7.30;;;1.92;;
21729;SDS011;11027;51.030;13.812;2024-03-17T14:57:19;5.75;;;2.00;;
21729;SDS011;11027;51.030;13.812;2024-03-17T14:59:45;4.07;;;1.77;;
21729;SDS011;11027;51.030;13.812;2024-03-17T15:02:10;8.23;;;2.10;;
21729;SDS011;11027;51.030;13.812;2024-03-17T15:04:35;6.22;;;2.10;;
21729;SDS011;11027;51.030;13.812;2024-03-17T15:07:01;5.78;;;2.10;;